Time;durP1;ratioP1;P1;durP2;ratioP2;P2;SDS_P1;SDS_P2;PMS_P1;PMS_P2;Temp;Humidity;BMP_temperature;BMP_pressure;BME280_temperature;BME280_humidity;BME280_pressure;Samples;Min_cycle;Max_cycle;Signal;HPM_P1;HPM_P2
2021/12/20 00:00:24;;;;;;;21.83;12.02;;;;;;;;;;5055271;28;20028;-75
2021/12/20 00:02:52;;;;;;;23.92;12.20;;;;;;;;;;5054891;28;20035;-77
2021/12/20 00:05:19;;;;;;;22.27;12.38;;;;;;;;;;5054899;28;20039;-77
2021/12/20 00:07:44;;;;;;;23.15;13.00;;;;;;;;;;5054909;28;20421;-77
2021/12/20 00:10:10;;;;;;;24.15;13.07;;;;;;;;;;5055673;28;20032;-77
2021/12/20 00:12:35;;;;;;;24.95;13.82;;;;;;;;;;5056441;28;20032;-78
2021/12/20 00:15:01;;;;;;;24.10;13.65;;;;;;;;;;5054756;28;20029;-78
2021/12/20 00:17:26;;;;;;;26.77;13.48;;;;;;;;;;5053442;28;20044;-78
2021/12/20 00:19:52;;;;;;;25.35;13.77;;;;;;;;;;5054651;28;20458;-78
2021/12/20 00:22:17;;;;;;;25.13;13.82;;;;;;;;;;5054556;28;20032;-78
2021/12/20 00:24:43;;;;;;;27.30;13.25;;;;;;;;;;5053339;28;20037;-77
2021/12/20 00:27:10;;;;;;;27.08;12.95;;;;;;;;;;5053328;28;20098;-77
2021/12/20 00:29:36;;;;;;;26.73;13.75;;;;;;;;;;5038434;28;20032;-76
2021/12/20 00:32:03;;;;;;;23.38;12.50;;;;;;;;;;5055612;28;20029;-77
2021/12/20 00:34:28;;;;;;;22.25;11.63;;;;;;;;;;5054695;28;20033;-78
2021/12/20 00:37:02;;;;;;;29.65;13.15;;;;;;;;;;5054303;28;20091;-77
2021/12/20 00:42:12;;;;;;;25.42;12.68;;;;;;;;;;5054085;28;20028;-79
2021/12/20 00:44:38;;;;;;;24.42;11.85;;;;;;;;;;5054260;28;20025;-77
2021/12/20 00:47:04;;;;;;;22.63;11.90;;;;;;;;;;5052946;28;20071;-77
2021/12/20 00:49:29;;;;;;;22.83;11.85;;;;;;;;;;5057309;28;20021;-77
2021/12/20 00:51:54;;;;;;;26.15;12.93;;;;;;;;;;5054442;28;20028;-78
2021/12/20 00:54:20;;;;;;;23.83;11.88;;;;;;;;;;5052994;28;20038;-78
2021/12/20 00:56:45;;;;;;;22.45;11.55;;;;;;;;;;5053819;28;20037;-77
2021/12/20 00:59:11;;;;;;;20.55;12.27;;;;;;;;;;5054126;28;20025;-77
2021/12/20 01:01:36;;;;;;;22.63;11.77;;;;;;;;;;5053993;28;20031;-78
2021/12/20 01:04:03;;;;;;;25.35;11.77;;;;;;;;;;5054008;28;20025;-77
2021/12/20 01:06:28;;;;;;;20.90;11.63;;;;;;;;;;5054494;28;20025;-78
2021/12/20 01:08:54;;;;;;;25.88;11.93;;;;;;;;;;5054163;28;20534;-77
2021/12/20 01:11:24;;;;;;;28.23;11.70;;;;;;;;;;5053722;28;20017;-78
2021/12/20 01:13:50;;;;;;;19.05;10.95;;;;;;;;;;5052699;28;20037;-77
2021/12/20 01:16:16;;;;;;;22.58;12.05;;;;;;;;;;5052966;28;20115;-78
2021/12/20 01:18:41;;;;;;;21.38;12.05;;;;;;;;;;5052636;28;20036;-78
2021/12/20 01:21:07;;;;;;;21.80;11.60;;;;;;;;;;5052719;28;20025;-78
2021/12/20 01:23:34;;;;;;;24.63;11.70;;;;;;;;;;5052892;28;20032;-78
2021/12/20 01:26:00;;;;;;;22.25;11.85;;;;;;;;;;5053499;28;20057;-77
2021/12/20 01:28:25;;;;;;;23.05;11.32;;;;;;;;;;5054398;28;20483;-78
2021/12/20 01:30:51;;;;;;;21.60;9.93;;;;;;;;;;5053791;28;20070;-77
2021/12/20 01:33:16;;;;;;;23.38;11.07;;;;;;;;;;5053812;28;20372;-77
2021/12/20 01:35:42;;;;;;;23.83;10.95;;;;;;;;;;5054202;28;20111;-78
2021/12/20 01:38:07;;;;;;;23.45;11.93;;;;;;;;;;5054267;28;20344;-78
2021/12/20 01:40:35;;;;;;;20.60;11.65;;;;;;;;;;5056328;28;20357;-77
2021/12/20 01:43:00;;;;;;;20.27;11.50;;;;;;;;;;5057638;28;20078;-77
2021/12/20 01:45:27;;;;;;;23.92;11.05;;;;;;;;;;5059198;28;20056;-76
2021/12/20 01:48:03;;;;;;;21.88;11.20;;;;;;;;;;5057856;28;20025;-78
2021/12/20 01:53:06;;;;;;;21.27;11.30;;;;;;;;;;5057200;28;20118;-77
2021/12/20 01:55:31;;;;;;;23.05;12.63;;;;;;;;;;5057366;28;20072;-77
2021/12/20 01:57:57;;;;;;;24.40;12.30;;;;;;;;;;5039765;28;20033;-78
2021/12/20 02:00:26;;;;;;;23.55;12.50;;;;;;;;;;5057240;28;20029;-78
2021/12/20 02:03:00;;;;;;;24.75;13.05;;;;;;;;;;5057100;28;20040;-77
2021/12/20 02:08:23;;;;;;;22.58;12.45;;;;;;;;;;5044825;28;20040;-77
2021/12/20 02:10:49;;;;;;;24.77;12.50;;;;;;;;;;5045593;28;20458;-76
2021/12/20 02:13:16;;;;;;;26.65;13.73;;;;;;;;;;5043515;28;20448;-78
2021/12/20 02:15:41;;;;;;;19.95;11.35;;;;;;;;;;5062137;28;20471;-77
2021/12/20 02:18:07;;;;;;;26.17;11.65;;;;;;;;;;5061813;28;20058;-76
2021/12/20 02:20:33;;;;;;;26.15;13.30;;;;;;;;;;5059130;28;20082;-78
2021/12/20 02:22:58;;;;;;;26.02;12.85;;;;;;;;;;5055950;28;20093;-77
2021/12/20 02:25:25;;;;;;;25.38;13.50;;;;;;;;;;5043454;28;20032;-77
2021/12/20 02:27:50;;;;;;;28.70;14.10;;;;;;;;;;5055579;28;20021;-77
2021/12/20 02:38:26;;;;;;;26.70;13.70;;;;;;;;;;5055174;28;20040;-77
2021/12/20 02:40:59;;;;;;;23.92;12.80;;;;;;;;;;5056739;28;20037;-77
2021/12/20 02:43:27;;;;;;;25.33;13.50;;;;;;;;;;5058705;28;20419;-77
2021/12/20 02:45:56;;;;;;;27.42;12.93;;;;;;;;;;5059277;28;20033;-77
2021/12/20 02:48:22;;;;;;;24.30;12.30;;;;;;;;;;5056378;28;20036;-77
2021/12/20 02:50:47;;;;;;;22.33;13.15;;;;;;;;;;5053852;28;20025;-76
2021/12/20 02:53:13;;;;;;;21.25;11.60;;;;;;;;;;5071978;28;20363;-77
2021/12/20 02:55:38;;;;;;;28.13;13.25;;;;;;;;;;5056294;28;20102;-78
2021/12/20 02:58:04;;;;;;;23.27;12.55;;;;;;;;;;5056208;28;20037;-77
2021/12/20 03:00:29;;;;;;;21.52;11.80;;;;;;;;;;5038465;28;20375;-77
2021/12/20 03:02:55;;;;;;;30.52;12.95;;;;;;;;;;5059462;28;20029;-77
2021/12/20 03:05:20;;;;;;;24.83;12.38;;;;;;;;;;5059372;28;20471;-78
2021/12/20 03:07:50;;;;;;;21.30;11.63;;;;;;;;;;5056053;28;20025;-77
2021/12/20 03:10:15;;;;;;;18.83;10.63;;;;;;;;;;5055024;28;20430;-78
2021/12/20 03:12:41;;;;;;;23.45;10.90;;;;;;;;;;5054780;28;20025;-77
2021/12/20 03:15:18;;;;;;;20.45;10.65;;;;;;;;;;5055930;28;20043;-78
2021/12/20 03:17:44;;;;;;;18.52;10.20;;;;;;;;;;5054626;28;20043;-77
2021/12/20 03:20:09;;;;;;;18.10;9.88;;;;;;;;;;5055898;28;20025;-77
2021/12/20 03:22:35;;;;;;;15.95;10.02;;;;;;;;;;5059457;28;20045;-77
2021/12/20 03:25:01;;;;;;;13.82;8.43;;;;;;;;;;5056667;28;20060;-78
2021/12/20 03:27:26;;;;;;;15.00;8.85;;;;;;;;;;5055712;28;20436;-78
2021/12/20 03:29:52;;;;;;;16.00;9.00;;;;;;;;;;5056137;28;20111;-78
2021/12/20 03:32:17;;;;;;;14.38;8.85;;;;;;;;;;5037791;28;20036;-78
2021/12/20 03:34:43;;;;;;;14.38;8.10;;;;;;;;;;5055525;28;20039;-77
2021/12/20 03:37:09;;;;;;;13.30;7.97;;;;;;;;;;5055375;28;20402;-78
2021/12/20 03:39:34;;;;;;;15.25;7.40;;;;;;;;;;5055244;28;20052;-78
2021/12/20 03:42:00;;;;;;;15.75;8.15;;;;;;;;;;5059836;28;20029;-77
2021/12/20 03:44:26;;;;;;;14.20;7.40;;;;;;;;;;5057348;28;20087;-77
2021/12/20 03:46:51;;;;;;;11.23;7.35;;;;;;;;;;5054429;28;20119;-77
2021/12/20 03:49:17;;;;;;;13.57;6.70;;;;;;;;;;5055244;28;20033;-77
2021/12/20 03:51:42;;;;;;;12.75;7.03;;;;;;;;;;5055081;28;20021;-77
2021/12/20 03:54:08;;;;;;;13.80;6.97;;;;;;;;;;5055095;28;20036;-78
2021/12/20 03:56:34;;;;;;;10.32;6.50;;;;;;;;;;5055069;28;20059;-77
2021/12/20 03:58:59;;;;;;;11.45;6.60;;;;;;;;;;5037195;28;20037;-77
2021/12/20 04:01:25;;;;;;;11.00;6.45;;;;;;;;;;5057701;28;20036;-77
2021/12/20 04:03:51;;;;;;;10.27;5.53;;;;;;;;;;5055636;28;20383;-77
2021/12/20 04:06:16;;;;;;;10.13;5.90;;;;;;;;;;5055252;28;20024;-77
2021/12/20 04:08:42;;;;;;;12.13;6.40;;;;;;;;;;5054886;28;20039;-77
2021/12/20 04:11:08;;;;;;;11.65;6.68;;;;;;;;;;5053665;28;20035;-77
2021/12/20 04:13:33;;;;;;;14.73;5.75;;;;;;;;;;5053633;28;20112;-77
2021/12/20 04:15:59;;;;;;;18.48;6.70;;;;;;;;;;5054713;28;20092;-77
2021/12/20 04:18:25;;;;;;;10.65;6.57;;;;;;;;;;5054707;28;20463;-77
2021/12/20 04:20:50;;;;;;;12.43;6.28;;;;;;;;;;5056222;28;20389;-77
2021/12/20 04:23:16;;;;;;;14.18;6.70;;;;;;;;;;5054607;28;20061;-77
2021/12/20 04:25:41;;;;;;;28.88;9.88;;;;;;;;;;5053674;28;20428;-77
2021/12/20 04:28:07;;;;;;;12.27;5.88;;;;;;;;;;5055167;28;20031;-77
2021/12/20 04:30:33;;;;;;;12.27;7.03;;;;;;;;;;5054500;28;20467;-78
2021/12/20 04:32:58;;;;;;;27.60;8.50;;;;;;;;;;5053331;28;20024;-76
2021/12/20 04:35:24;;;;;;;17.65;7.57;;;;;;;;;;5054401;28;20089;-77
2021/12/20 04:37:50;;;;;;;12.75;6.82;;;;;;;;;;5054980;28;20028;-77
2021/12/20 04:40:19;;;;;;;26.67;9.68;;;;;;;;;;5056995;28;20056;-77
2021/12/20 04:42:46;;;;;;;15.65;7.32;;;;;;;;;;5054542;28;20033;-77
2021/12/20 04:45:11;;;;;;;15.65;7.15;;;;;;;;;;5054800;28;20035;-77
2021/12/20 04:47:37;;;;;;;13.15;6.55;;;;;;;;;;5054031;28;20395;-76
2021/12/20 04:50:03;;;;;;;8.65;5.10;;;;;;;;;;5054158;28;20029;-76
2021/12/20 04:52:29;;;;;;;14.35;6.50;;;;;;;;;;5054440;28;20025;-77
2021/12/20 04:54:54;;;;;;;14.35;6.93;;;;;;;;;;5054357;28;20048;-76
2021/12/20 04:57:20;;;;;;;14.88;6.88;;;;;;;;;;5058525;28;20036;-77
2021/12/20 04:59:46;;;;;;;16.92;7.78;;;;;;;;;;5054038;28;20040;-76
2021/12/20 05:02:11;;;;;;;19.23;8.00;;;;;;;;;;5052509;28;20123;-77
2021/12/20 05:04:36;;;;;;;23.08;9.55;;;;;;;;;;5053254;28;20033;-78
2021/12/20 05:07:03;;;;;;;14.20;6.82;;;;;;;;;;5052674;28;20033;-78
2021/12/20 05:09:35;;;;;;;21.20;9.00;;;;;;;;;;5052748;28;20040;-78
2021/12/20 05:12:10;;;;;;;21.48;8.73;;;;;;;;;;5052700;28;20083;-79
2021/12/20 05:14:36;;;;;;;19.70;9.13;;;;;;;;;;5053492;28;20036;-77
2021/12/20 05:17:01;;;;;;;19.45;9.38;;;;;;;;;;5078526;28;20029;-78
2021/12/20 05:19:27;;;;;;;18.48;8.27;;;;;;;;;;5055399;28;20021;-77
2021/12/20 05:21:52;;;;;;;16.02;8.07;;;;;;;;;;5053751;28;20078;-78
2021/12/20 05:24:18;;;;;;;11.00;5.53;;;;;;;;;;5053794;28;20427;-77
2021/12/20 05:26:43;;;;;;;11.00;6.68;;;;;;;;;;5036013;28;20059;-78
2021/12/20 05:29:09;;;;;;;11.15;6.90;;;;;;;;;;5053522;28;20033;-76
2021/12/20 05:31:34;;;;;;;11.52;6.93;;;;;;;;;;5053420;28;20102;-78
2021/12/20 05:34:00;;;;;;;11.20;6.28;;;;;;;;;;5052134;28;20047;-78
2021/12/20 05:36:26;;;;;;;11.57;6.82;;;;;;;;;;5055583;28;20024;-77
2021/12/20 05:38:51;;;;;;;15.15;7.57;;;;;;;;;;5056789;28;20135;-79
2021/12/20 05:41:17;;;;;;;11.27;6.32;;;;;;;;;;5054176;28;20052;-78
2021/12/20 05:43:43;;;;;;;12.88;6.65;;;;;;;;;;5052011;28;20025;-78
2021/12/20 05:46:08;;;;;;;15.13;7.95;;;;;;;;;;5052984;28;20022;-78
2021/12/20 05:48:33;;;;;;;14.00;6.18;;;;;;;;;;5053449;28;20029;-76
2021/12/20 05:50:59;;;;;;;18.85;7.82;;;;;;;;;;5052760;28;20029;-78
2021/12/20 05:53:24;;;;;;;21.33;8.20;;;;;;;;;;5052492;28;20448;-80
2021/12/20 05:55:50;;;;;;;18.10;8.07;;;;;;;;;;5070635;28;20032;-77
2021/12/20 05:58:16;;;;;;;16.50;7.55;;;;;;;;;;5050910;28;20040;-76
2021/12/20 06:00:42;;;;;;;14.60;6.55;;;;;;;;;;5048539;28;20131;-76
2021/12/20 06:03:07;;;;;;;17.55;7.32;;;;;;;;;;5050191;28;20028;-75
2021/12/20 06:05:33;;;;;;;14.45;6.97;;;;;;;;;;5047671;28;20110;-74
2021/12/20 06:07:58;;;;;;;12.05;6.22;;;;;;;;;;5048894;28;20025;-75
2021/12/20 06:10:24;;;;;;;8.38;5.43;;;;;;;;;;5047820;28;20029;-74
2021/12/20 06:12:49;;;;;;;9.30;5.30;;;;;;;;;;5046166;28;20136;-73
2021/12/20 06:15:15;;;;;;;17.85;8.32;;;;;;;;;;5046501;28;20446;-74
2021/12/20 06:17:40;;;;;;;8.50;4.50;;;;;;;;;;5048841;28;20103;-77
2021/12/20 06:20:08;;;;;;;7.50;5.38;;;;;;;;;;5046159;28;20033;-76
2021/12/20 06:22:33;;;;;;;8.90;4.85;;;;;;;;;;5045351;28;20043;-75
2021/12/20 06:24:59;;;;;;;10.73;5.40;;;;;;;;;;5047424;28;20102;-75
2021/12/20 06:27:24;;;;;;;7.50;4.47;;;;;;;;;;5050581;28;20090;-73
2021/12/20 06:29:50;;;;;;;7.35;4.72;;;;;;;;;;5049639;28;20126;-75
2021/12/20 06:32:15;;;;;;;8.30;5.00;;;;;;;;;;5045632;28;20033;-74
2021/12/20 06:34:41;;;;;;;8.40;4.50;;;;;;;;;;5045589;28;20418;-69
2021/12/20 06:37:07;;;;;;;16.05;7.60;;;;;;;;;;5041647;28;20033;-73
2021/12/20 06:39:32;;;;;;;9.10;5.15;;;;;;;;;;5047253;28;20044;-74
2021/12/20 06:41:58;;;;;;;12.60;6.38;;;;;;;;;;5050533;28;20373;-74
2021/12/20 06:44:23;;;;;;;12.63;6.82;;;;;;;;;;5068351;28;20036;-73
2021/12/20 06:46:49;;;;;;;12.88;6.63;;;;;;;;;;5053096;28;20029;-74
2021/12/20 06:49:15;;;;;;;9.38;5.10;;;;;;;;;;5061442;28;20029;-75
2021/12/20 06:51:43;;;;;;;6.40;3.88;;;;;;;;;;5049594;28;20101;-75
2021/12/20 06:54:16;;;;;;;9.15;4.50;;;;;;;;;;5065614;28;20029;-77
2021/12/20 06:56:54;;;;;;;8.95;5.38;;;;;;;;;;5048542;28;20037;-76
2021/12/20 06:59:22;;;;;;;11.93;5.22;;;;;;;;;;5035086;28;20408;-76
2021/12/20 07:01:48;;;;;;;7.93;4.65;;;;;;;;;;5045929;28;20487;-76
2021/12/20 07:04:15;;;;;;;8.00;4.70;;;;;;;;;;5046322;28;20025;-76
2021/12/20 07:06:43;;;;;;;8.93;4.47;;;;;;;;;;5044624;28;20456;-77
2021/12/20 07:09:15;;;;;;;11.00;5.28;;;;;;;;;;5049202;28;20098;-78
2021/12/20 07:11:44;;;;;;;8.82;5.30;;;;;;;;;;5061033;28;20124;-78
2021/12/20 07:14:10;;;;;;;18.05;6.15;;;;;;;;;;5024242;28;20025;-76
2021/12/20 07:16:36;;;;;;;10.90;5.60;;;;;;;;;;5042481;28;20040;-75
2021/12/20 07:19:04;;;;;;;17.15;8.40;;;;;;;;;;5044740;28;20036;-75
2021/12/20 07:21:29;;;;;;;9.18;5.80;;;;;;;;;;5042975;28;20042;-79
2021/12/20 07:23:56;;;;;;;10.52;5.55;;;;;;;;;;5047583;28;20087;-74
2021/12/20 07:26:21;;;;;;;9.80;4.47;;;;;;;;;;5044539;28;20120;-78
2021/12/20 07:28:47;;;;;;;6.85;4.32;;;;;;;;;;5038587;28;20107;-76
2021/12/20 07:31:13;;;;;;;9.18;5.68;;;;;;;;;;5045838;28;20057;-76
2021/12/20 07:33:39;;;;;;;13.90;7.05;;;;;;;;;;5044362;28;20391;-73
2021/12/20 07:36:05;;;;;;;12.45;6.32;;;;;;;;;;5047176;28;20034;-75
2021/12/20 07:38:30;;;;;;;13.32;6.75;;;;;;;;;;5041487;28;20807;-76
2021/12/20 07:40:57;;;;;;;14.98;6.43;;;;;;;;;;5044250;28;20474;-74
2021/12/20 07:43:23;;;;;;;14.35;6.85;;;;;;;;;;5047383;28;20091;-73
2021/12/20 07:45:49;;;;;;;12.32;7.38;;;;;;;;;;5050510;28;20044;-73
2021/12/20 07:48:18;;;;;;;10.52;6.47;;;;;;;;;;5051799;28;20166;-75
2021/12/20 07:50:44;;;;;;;11.13;6.50;;;;;;;;;;5046383;28;20037;-75
2021/12/20 07:53:10;;;;;;;13.02;7.05;;;;;;;;;;5055003;28;20158;-76
2021/12/20 07:55:36;;;;;;;15.00;7.70;;;;;;;;;;5051810;28;20033;-78
2021/12/20 07:58:01;;;;;;;19.52;11.70;;;;;;;;;;5052413;28;20108;-75
2021/12/20 08:00:27;;;;;;;25.17;12.93;;;;;;;;;;5052147;28;20045;-76
2021/12/20 08:02:53;;;;;;;24.08;9.52;;;;;;;;;;5067446;28;20076;-77
2021/12/20 08:05:19;;;;;;;16.45;8.57;;;;;;;;;;5050566;28;20029;-77
2021/12/20 08:07:47;;;;;;;13.93;6.75;;;;;;;;;;5051878;28;20032;-78
2021/12/20 08:10:15;;;;;;;20.40;9.32;;;;;;;;;;5048439;28;20063;-79
2021/12/20 08:12:40;;;;;;;86.20;27.75;;;;;;;;;;5057755;28;20025;-78
2021/12/20 08:15:06;;;;;;;22.70;9.95;;;;;;;;;;5053112;28;20017;-77
2021/12/20 08:17:32;;;;;;;16.00;8.75;;;;;;;;;;5049926;28;20056;-79
2021/12/20 08:19:58;;;;;;;24.77;9.25;;;;;;;;;;5032634;28;20029;-78
2021/12/20 08:22:25;;;;;;;16.67;7.97;;;;;;;;;;5050396;28;20455;-78
2021/12/20 08:24:54;;;;;;;15.20;8.57;;;;;;;;;;5050646;28;20025;-77
2021/12/20 08:27:20;;;;;;;15.27;8.23;;;;;;;;;;5050182;28;20124;-77
2021/12/20 08:29:45;;;;;;;16.73;9.52;;;;;;;;;;5053070;28;20057;-79
2021/12/20 08:32:11;;;;;;;16.60;8.90;;;;;;;;;;5051768;28;20029;-80
2021/12/20 08:34:36;;;;;;;32.90;15.68;;;;;;;;;;5055544;28;20112;-80
2021/12/20 08:37:02;;;;;;;19.08;10.05;;;;;;;;;;5048836;28;20139;-77
2021/12/20 08:39:29;;;;;;;15.88;9.15;;;;;;;;;;5050135;28;20048;-78
2021/12/20 08:41:54;;;;;;;10.82;7.18;;;;;;;;;;5047759;28;20025;-77
2021/12/20 08:44:20;;;;;;;11.98;7.22;;;;;;;;;;5065401;28;20523;-79
2021/12/20 08:46:45;;;;;;;10.77;6.43;;;;;;;;;;5049536;28;20029;-79
2021/12/20 08:49:11;;;;;;;19.30;9.93;;;;;;;;;;5049638;28;20068;-76
2021/12/20 08:51:37;;;;;;;11.20;5.68;;;;;;;;;;5050377;28;20033;-76
2021/12/20 08:54:03;;;;;;;12.82;5.63;;;;;;;;;;5047816;28;20087;-74
2021/12/20 08:56:29;;;;;;;11.45;4.85;;;;;;;;;;5044843;28;20120;-76
2021/12/20 08:58:54;;;;;;;14.88;7.82;;;;;;;;;;5050871;28;20131;-76
2021/12/20 09:01:21;;;;;;;10.00;5.40;;;;;;;;;;5048932;28;20036;-77
2021/12/20 09:03:46;;;;;;;11.15;5.30;;;;;;;;;;5044889;28;20076;-77
2021/12/20 09:06:13;;;;;;;10.57;5.88;;;;;;;;;;5045964;28;20083;-76
2021/12/20 09:08:40;;;;;;;12.40;5.30;;;;;;;;;;5045885;28;20037;-76
2021/12/20 09:11:06;;;;;;;9.73;4.68;;;;;;;;;;5046503;28;20029;-77
2021/12/20 09:13:31;;;;;;;14.15;6.28;;;;;;;;;;5051945;28;20086;-74
2021/12/20 09:16:01;;;;;;;9.35;5.72;;;;;;;;;;5063911;28;20036;-74
2021/12/20 09:18:29;;;;;;;11.73;5.43;;;;;;;;;;5053416;28;20041;-76
2021/12/20 09:21:17;;;;;;;5.47;3.60;;;;;;;;;;5032635;28;20040;-77
2021/12/20 09:23:43;;;;;;;3.15;2.60;;;;;;;;;;5050566;28;20021;-79
2021/12/20 09:26:10;;;;;;;4.68;3.17;;;;;;;;;;5033427;28;20033;-80
2021/12/20 09:28:36;;;;;;;8.30;3.40;;;;;;;;;;5057500;28;20089;-76
2021/12/20 09:31:02;;;;;;;5.40;3.20;;;;;;;;;;5058691;28;20194;-75
2021/12/20 09:33:27;;;;;;;10.75;5.25;;;;;;;;;;5061740;28;20115;-78
2021/12/20 09:35:53;;;;;;;17.08;5.32;;;;;;;;;;5065924;28;20124;-78
2021/12/20 09:38:21;;;;;;;10.65;4.70;;;;;;;;;;5043673;28;20037;-78
2021/12/20 09:43:40;;;;;;;9.80;4.50;;;;;;;;;;5031641;28;20099;-78
2021/12/20 09:46:06;;;;;;;7.13;4.22;;;;;;;;;;5030916;28;20037;-77
2021/12/20 09:48:34;;;;;;;8.63;4.50;;;;;;;;;;5047971;28;20113;-77
2021/12/20 09:51:00;;;;;;;11.38;3.72;;;;;;;;;;5050874;28;20021;-76
2021/12/20 09:53:25;;;;;;;4.97;3.03;;;;;;;;;;5048633;28;20475;-78
2021/12/20 09:55:51;;;;;;;7.07;3.80;;;;;;;;;;5049539;28;20510;-76
2021/12/20 09:58:21;;;;;;;6.55;3.05;;;;;;;;;;5049380;28;20060;-79
2021/12/20 10:00:48;;;;;;;26.70;11.60;;;;;;;;;;5055513;28;20080;-75
2021/12/20 10:03:14;;;;;;;9.60;5.28;;;;;;;;;;5053170;28;20040;-74
2021/12/20 10:05:40;;;;;;;29.70;11.75;;;;;;;;;;5052882;28;20024;-75
2021/12/20 10:08:16;;;;;;;15.82;7.43;;;;;;;;;;5035461;28;20041;-74
2021/12/20 10:10:49;;;;;;;7.70;3.88;;;;;;;;;;5053932;28;20460;-77
2021/12/20 10:13:26;;;;;;;9.02;4.40;;;;;;;;;;5036230;28;20315;-78
2021/12/20 10:15:52;;;;;;;8.40;3.42;;;;;;;;;;5070068;28;20029;-78
2021/12/20 10:18:17;;;;;;;14.82;4.75;;;;;;;;;;5038103;28;20092;-77
2021/12/20 10:20:52;;;;;;;15.25;6.07;;;;;;;;;;5056561;28;20387;-78
2021/12/20 10:23:20;;;;;;;17.88;4.45;;;;;;;;;;5052701;28;20041;-78
2021/12/20 10:25:49;;;;;;;9.90;4.50;;;;;;;;;;5054470;28;20033;-77
2021/12/20 10:28:16;;;;;;;34.33;14.98;;;;;;;;;;5056178;28;20040;-73
2021/12/20 10:30:47;;;;;;;13.93;6.65;;;;;;;;;;5056582;28;20465;-73
2021/12/20 10:33:18;;;;;;;37.83;11.30;;;;;;;;;;5045888;28;20052;-72
2021/12/20 10:35:53;;;;;;;17.33;7.28;;;;;;;;;;5063400;28;20037;-73
2021/12/20 10:38:28;;;;;;;19.00;8.50;;;;;;;;;;5051912;28;20037;-74
2021/12/20 10:41:13;;;;;;;37.47;15.68;;;;;;;;;;5036478;28;20041;-74
2021/12/20 10:47:01;;;;;;;11.10;5.55;;;;;;;;;;5040385;22;20126;-77
2021/12/20 10:49:27;;;;;;;8.45;4.20;;;;;;;;;;5027013;28;20099;-80
2021/12/20 10:51:53;;;;;;;10.38;4.72;;;;;;;;;;5009079;28;20069;-78
2021/12/20 10:54:22;;;;;;;8.70;4.20;;;;;;;;;;5033711;28;20471;-79
2021/12/20 10:56:54;;;;;;;7.53;4.28;;;;;;;;;;5015562;28;20029;-77
2021/12/20 10:59:21;;;;;;;9.10;4.80;;;;;;;;;;5040123;28;20029;-78
2021/12/20 11:04:35;;;;;;;10.25;4.47;;;;;;;;;;5019433;28;20026;-77
2021/12/20 11:10:06;;;;;;;11.48;5.10;;;;;;;;;;5015740;28;20032;-77
2021/12/20 11:12:34;;;;;;;10.73;5.18;;;;;;;;;;4997044;28;20053;-77
2021/12/20 11:15:03;;;;;;;10.63;4.80;;;;;;;;;;5020550;28;20043;-77
2021/12/20 11:17:29;;;;;;;23.73;11.65;;;;;;;;;;5037368;28;20022;-74
2021/12/20 11:19:55;;;;;;;12.32;4.95;;;;;;;;;;5040238;28;20044;-77
2021/12/20 11:22:22;;;;;;;10.65;5.50;;;;;;;;;;5023139;28;20021;-77
2021/12/20 11:24:53;;;;;;;9.60;4.22;;;;;;;;;;5033519;28;20051;-80
2021/12/20 11:27:38;;;;;;;16.67;6.00;;;;;;;;;;5010643;28;20068;-78
2021/12/20 11:30:12;;;;;;;19.63;5.40;;;;;;;;;;4995171;28;20034;-78
2021/12/20 11:32:38;;;;;;;17.55;6.25;;;;;;;;;;5003622;28;20125;-78
2021/12/20 11:35:04;;;;;;;8.45;3.72;;;;;;;;;;5022904;28;20108;-77
2021/12/20 11:37:30;;;;;;;12.00;4.80;;;;;;;;;;5014765;28;20116;-77
2021/12/20 11:39:59;;;;;;;14.48;4.85;;;;;;;;;;5021283;28;20413;-78
2021/12/20 11:42:24;;;;;;;8.27;3.70;;;;;;;;;;5016870;28;20424;-77
2021/12/20 11:44:56;;;;;;;23.38;4.95;;;;;;;;;;4999850;28;20083;-78
2021/12/20 11:47:31;;;;;;;11.98;4.93;;;;;;;;;;5016207;28;20215;-78
2021/12/20 11:50:02;;;;;;;12.00;5.10;;;;;;;;;;5017385;28;20214;-80
2021/12/20 11:52:32;;;;;;;7.50;4.07;;;;;;;;;;5000480;28;20025;-79
2021/12/20 11:54:58;;;;;;;9.07;4.45;;;;;;;;;;5012772;28;20026;-79
2021/12/20 11:57:34;;;;;;;15.85;5.22;;;;;;;;;;5011552;28;20041;-78
2021/12/20 12:00:01;;;;;;;7.22;4.07;;;;;;;;;;5029740;28;20025;-79
2021/12/20 12:02:31;;;;;;;12.95;3.10;;;;;;;;;;4994943;28;20029;-78
2021/12/20 12:05:09;;;;;;;12.32;5.43;;;;;;;;;;4995439;28;20064;-78
2021/12/20 12:07:35;;;;;;;11.60;4.25;;;;;;;;;;4996950;28;20379;-78
2021/12/20 12:10:04;;;;;;;12.13;5.40;;;;;;;;;;4980523;28;20032;-79
2021/12/20 12:12:30;;;;;;;18.40;8.27;;;;;;;;;;5012788;28;20017;-78
2021/12/20 12:15:20;;;;;;;17.67;8.43;;;;;;;;;;4995543;28;20025;-76
2021/12/20 12:17:54;;;;;;;29.92;13.10;;;;;;;;;;5013364;28;20371;-75
2021/12/20 12:20:35;;;;;;;22.83;9.63;;;;;;;;;;5013743;28;20026;-75
2021/12/20 12:23:12;;;;;;;24.08;7.95;;;;;;;;;;5033059;28;20029;-75
2021/12/20 12:25:43;;;;;;;7.35;3.97;;;;;;;;;;5000682;28;20021;-75
2021/12/20 12:28:09;;;;;;;9.52;4.20;;;;;;;;;;4984752;28;20017;-75
2021/12/20 12:30:35;;;;;;;8.65;4.95;;;;;;;;;;5018204;28;20069;-75
2021/12/20 12:33:00;;;;;;;9.90;4.70;;;;;;;;;;5016582;28;20017;-75
2021/12/20 12:35:39;;;;;;;8.13;4.28;;;;;;;;;;5034375;28;20432;-74
2021/12/20 12:38:11;;;;;;;6.70;3.47;;;;;;;;;;5034242;28;20095;-76
2021/12/20 12:40:37;;;;;;;28.70;12.48;;;;;;;;;;5034335;28;20031;-74
2021/12/20 12:43:02;;;;;;;14.35;7.35;;;;;;;;;;5016745;28;20033;-74
2021/12/20 12:45:49;;;;;;;17.48;7.50;;;;;;;;;;5016261;28;20054;-74
2021/12/20 12:48:51;;;;;;;6.82;3.63;;;;;;;;;;5034093;28;20030;-76
2021/12/20 12:51:19;;;;;;;16.88;5.57;;;;;;;;;;5016376;28;20034;-75
2021/12/20 12:53:46;;;;;;;11.43;3.92;;;;;;;;;;5032924;28;20444;-75
2021/12/20 12:56:24;;;;;;;11.27;4.15;;;;;;;;;;5000502;28;20044;-75
2021/12/20 12:59:11;;;;;;;6.88;3.70;;;;;;;;;;5033875;28;20156;-75
2021/12/20 13:02:09;;;;;;;12.93;4.13;;;;;;;;;;5032471;28;20522;-75
2021/12/20 13:04:49;;;;;;;11.68;4.03;;;;;;;;;;5010764;28;20056;-76
2021/12/20 13:07:18;;;;;;;;;;;;;;;;;;5034474;28;20029;-75
2021/12/20 13:09:46;;;;;;;9.90;4.13;;;;;;;;;;5017527;28;20336;-75
2021/12/20 13:12:16;;;;;;;12.18;4.07;;;;;;;;;;5033981;28;20033;-75
2021/12/20 13:14:51;;;;;;;;;;;;;;;;;;5001334;28;20392;-75
2021/12/20 13:17:31;;;;;;;7.82;3.13;;;;;;;;;;5034316;28;19913;-75
2021/12/20 13:20:46;;;;;;;11.55;3.97;;;;;;;;;;5000800;28;20448;-76
2021/12/20 13:23:16;;;;;;;9.13;4.22;;;;;;;;;;5012560;28;20033;-74
2021/12/20 13:25:47;;;;;;;16.35;7.35;;;;;;;;;;5000386;28;20038;-75
2021/12/20 13:28:26;;;;;;;16.63;6.78;;;;;;;;;;5017215;28;20445;-75
2021/12/20 13:31:07;;;;;;;7.55;4.07;;;;;;;;;;5000593;28;20397;-75
2021/12/20 13:33:38;;;;;;;9.23;4.60;;;;;;;;;;5032404;28;20034;-75
2021/12/20 13:36:09;;;;;;;8.13;3.80;;;;;;;;;;5004043;28;20090;-75
2021/12/20 13:38:36;;;;;;;11.23;4.80;;;;;;;;;;5020636;28;20041;-75
2021/12/20 13:41:15;;;;;;;18.10;8.38;;;;;;;;;;5020047;28;20033;-75
2021/12/20 13:43:45;;;;;;;15.70;6.50;;;;;;;;;;5004864;28;20026;-76
2021/12/20 13:46:17;;;;;;;10.73;5.07;;;;;;;;;;5021223;28;20085;-76
2021/12/20 13:48:55;;;;;;;11.43;5.38;;;;;;;;;;5036536;28;20481;-76
2021/12/20 13:51:23;;;;;;;8.30;4.95;;;;;;;;;;5019836;28;20033;-76
2021/12/20 13:53:48;;;;;;;11.68;4.32;;;;;;;;;;5003555;28;20040;-75
2021/12/20 13:56:14;;;;;;;13.52;4.68;;;;;;;;;;4987373;28;20033;-75
2021/12/20 13:58:40;;;;;;;10.10;4.65;;;;;;;;;;5019372;28;20071;-74
2021/12/20 14:01:05;;;;;;;7.07;3.83;;;;;;;;;;5003316;28;20035;-74
2021/12/20 14:03:31;;;;;;;7.90;4.15;;;;;;;;;;5037311;28;20029;-75
2021/12/20 14:05:56;;;;;;;10.65;5.40;;;;;;;;;;5003238;28;20344;-74
2021/12/20 14:11:17;;;;;;;10.43;4.85;;;;;;;;;;5022328;28;20086;-74
2021/12/20 14:13:42;;;;;;;18.75;9.20;;;;;;;;;;5019213;28;20026;-75
2021/12/20 14:16:08;;;;;;;17.83;8.95;;;;;;;;;;5037274;28;20041;-74
2021/12/20 14:18:38;;;;;;;37.10;20.23;;;;;;;;;;5019390;28;20041;-75
2021/12/20 14:21:04;;;;;;;45.37;26.07;;;;;;;;;;5003064;28;20037;-74
2021/12/20 14:23:34;;;;;;;59.50;27.23;;;;;;;;;;5036878;28;20040;-75
2021/12/20 14:26:04;;;;;;;72.25;34.63;;;;;;;;;;5036921;28;20163;-75
2021/12/20 14:28:30;;;;;;;24.20;12.63;;;;;;;;;;5019909;28;20467;-75
2021/12/20 14:31:20;;;;;;;24.98;9.70;;;;;;;;;;5036816;28;20087;-76
2021/12/20 14:33:53;;;;;;;18.27;8.55;;;;;;;;;;5036918;28;20401;-76
2021/12/20 14:36:20;;;;;;;20.10;8.25;;;;;;;;;;5019430;28;20120;-76
2021/12/20 14:38:50;;;;;;;35.08;11.55;;;;;;;;;;5036726;28;20052;-75
2021/12/20 14:41:15;;;;;;;23.40;9.40;;;;;;;;;;5002528;28;20032;-75
2021/12/20 14:43:42;;;;;;;31.98;10.43;;;;;;;;;;5036534;28;20364;-75
2021/12/20 14:46:27;;;;;;;27.60;10.30;;;;;;;;;;5014220;28;20439;-75
2021/12/20 14:48:59;;;;;;;21.20;7.80;;;;;;;;;;5001833;28;20489;-77
2021/12/20 14:51:26;;;;;;;28.33;9.35;;;;;;;;;;5000384;28;20091;-75
2021/12/20 14:54:20;;;;;;;22.92;9.18;;;;;;;;;;5016999;28;20105;-75
2021/12/20 14:56:57;;;;;;;25.15;9.63;;;;;;;;;;5000364;28;20055;-75
2021/12/20 14:59:24;;;;;;;30.02;10.70;;;;;;;;;;4983660;28;20449;-74
2021/12/20 15:01:50;;;;;;;46.42;17.13;;;;;;;;;;4983032;28;20032;-75
2021/12/20 15:04:15;;;;;;;30.33;11.75;;;;;;;;;;5016346;28;20399;-76